Odem, TX

12:35 PM CST on December 18, 2014 (GMT -0600)
Corpus Christi International | Change Station
CLOSE
Current Station
Airport
Location: Corpus Christi,
Elevation: 43 ft
Nearby Weather Stations

Elev 43 ft 27.77 °N, 97.51 °W | Updated 44 minutes ago

Overcast
Overcast
76 °F
Feels Like 76 °F
N
12
Wind Variable Wind from South

Today
High -- | Low -- °F
--% Chance of Precip.
Yesterday
High -- | Low -- °F
Precip. -- in
7:15 AM 5:38 PM
Waning Crescent, 13% visible
Pressure 30.05 in
Visibility 10.0 miles
Clouds Few 1800 ft
Scattered Clouds 4700 ft
Mostly Cloudy 8500 ft
Mostly Cloudy 15000 ft
Mostly Cloudy 25000 ft
Dew Point 67 °F
Humidity 74%
Rainfall 0.00 in
Snow Depth Not available.
UV 3 out of 12
Pollen 6.90 out of 12
Air Quality Not available.
Flu Activity Not available.
METAR KCRP 181751Z 17010KT 10SM FEW018 SCT047 BKN085 BKN150 BKN250 24/19 A3005 RMK AO2 SLP175 TCU DSNT N W NW T02440194 10250 20194 58004

More Conditions Fewer Conditions

Pressure 30.05 in
Visibility 10.0 miles
Clouds Few 1800 ft
Scattered Clouds 4700 ft
Mostly Cloudy 8500 ft
Mostly Cloudy 15000 ft
Mostly Cloudy 25000 ft
Dew Point 67 °F
Humidity 74%
Rainfall 0.00 in
Snow Depth Not available.
UV 3 out of 12
Pollen 6.90 out of 12
Air Quality Not available.
Flu Activity Not available.
METAR KCRP 181751Z 17010KT 10SM FEW018 SCT047 BKN085 BKN150 BKN250 24/19 A3005 RMK AO2 SLP175 TCU DSNT N W NW T02440194 10250 20194 58004

More Conditions Fewer Conditions

Nowcast | as of 8:50 am CST on December 18, 2014

Isolated showers will continue to affect south Texas and the adjacent coastal waters. However...low clouds with fog and light drizzle will be the issue along the Rio Grande River near Laredo. Through noon CST...rainfall amounts will be minimal...though a few locations may receive a quick tenth of an inch from a moderate shower. The cells will progress to the north and northeast. In addition...the visibility may lower to three quarters of a mile in fog...mainly across the Victoria Crossroads and Webb County.

×

10-Day Weather Forecast

Almanac

Astronomy

Dec. 18, 2014 Rise Set
Actual Time
Civil Twilight
Nautical Twilight
Astronomical Twilight
Moon
Length of Visible Light
Length of Day
Tomorrow will be .
, % of the Moon is Illuminated

Today's Extremes

State Highs State Lows

Community

WunderPhotos

Upload Photos

1,778,973 photos uploaded!

WunderBlogs® & News

Nearby

Air Quality

  Air Quality AQ Index Pollutant
Not available.

Snow Depth

Station Depth Elevation

Earthquake Activity

City Distance Mag. Time & Date
Minimum magnitude displayed is 2.5.

Coastal Water Temperatures

Place Temperature

Nearby Weather Stations